createdAt,value
2019-04-21T00:01:16.423Z,4.80
2019-04-21T00:03:50.118Z,4.70
2019-04-21T00:06:36.823Z,5.10
2019-04-21T00:09:14.380Z,4.90
2019-04-21T00:14:01.902Z,4.40
2019-04-21T00:16:32.086Z,4.60
2019-04-21T00:19:03.227Z,4.60
2019-04-21T00:21:47.841Z,4.40
2019-04-21T00:24:25.075Z,4.30
2019-04-21T00:27:06.892Z,4.50
2019-04-21T00:29:46.924Z,4.30
2019-04-21T00:32:08.590Z,4.30
2019-04-21T00:34:21.612Z,4.10
2019-04-21T00:37:09.128Z,4.20
2019-04-21T00:40:13.165Z,4.30
2019-04-21T00:42:30.207Z,4.60
2019-04-21T00:44:56.585Z,4.70
2019-04-21T00:47:30.301Z,4.50
2019-04-21T00:50:02.356Z,4.30
2019-04-21T00:53:00.175Z,4.30
2019-04-21T00:55:38.526Z,4.10
2019-04-21T00:58:27.083Z,4.30
2019-04-21T01:00:54.148Z,4.10
2019-04-21T01:03:29.653Z,4.10
2019-04-21T01:06:04.230Z,4.20
2019-04-21T01:08:31.324Z,4.10
2019-04-21T01:11:02.164Z,4.10
2019-04-21T01:13:41.187Z,4.10
2019-04-21T01:16:20.822Z,4.30
2019-04-21T01:18:49.312Z,3.80
2019-04-21T01:20:57.739Z,4.00
2019-04-21T01:23:27.547Z,4.00
2019-04-21T01:26:13.856Z,3.80
2019-04-21T01:28:52.531Z,3.80
2019-04-21T01:31:17.126Z,3.70
2019-04-21T01:33:56.497Z,3.90
2019-04-21T01:36:17.759Z,3.70
2019-04-21T01:39:02.243Z,3.60
2019-04-21T01:41:35.615Z,3.50
2019-04-21T01:43:54.512Z,3.60
2019-04-21T01:46:30.886Z,3.70
2019-04-21T01:49:03.353Z,3.50
2019-04-21T01:51:46.707Z,3.70
2019-04-21T01:54:40.408Z,3.70
2019-04-21T01:57:17.758Z,3.60
2019-04-21T01:59:41.611Z,3.70
2019-04-21T02:02:28.049Z,3.70
2019-04-21T02:05:03.458Z,3.40
2019-04-21T02:07:27.184Z,3.70
2019-04-21T02:10:07.542Z,3.50
2019-04-21T02:12:33.441Z,3.70
2019-04-21T02:15:14.923Z,3.40
2019-04-21T02:17:38.800Z,3.70
2019-04-21T02:20:02.798Z,3.40
2019-04-21T02:23:06.403Z,3.70
2019-04-21T02:25:23.082Z,3.50
2019-04-21T02:27:54.565Z,3.70
2019-04-21T02:30:36.512Z,3.70
2019-04-21T02:33:15.698Z,3.40
2019-04-21T02:35:39.948Z,3.40
2019-04-21T02:38:11.387Z,3.70
2019-04-21T02:43:19.278Z,3.70
2019-04-21T02:48:35.007Z,3.70
2019-04-21T02:51:17.462Z,3.50
2019-04-21T02:53:37.397Z,3.50
2019-04-21T02:58:52.393Z,3.60
2019-04-21T03:01:31.227Z,3.50
2019-04-21T03:04:18.565Z,3.40
2019-04-21T03:07:13.100Z,3.50
2019-04-21T03:14:56.520Z,3.20
2019-04-21T03:17:29.264Z,3.40
2019-04-21T03:20:13.790Z,3.20
2019-04-21T03:22:46.222Z,3.10
2019-04-21T03:25:21.358Z,3.70
2019-04-21T03:27:43.980Z,3.30
2019-04-21T03:30:20.731Z,3.40
2019-04-21T03:33:13.513Z,3.40
2019-04-21T03:40:18.721Z,3.30
2019-04-21T03:45:12.229Z,3.10
2019-04-21T03:50:13.079Z,3.30
2019-04-21T03:52:46.322Z,3.40
2019-04-21T03:58:16.976Z,3.20
2019-04-21T04:06:49.685Z,3.50
2019-04-21T04:09:25.731Z,3.30
2019-04-21T04:11:57.592Z,3.40
2019-04-21T04:17:12.776Z,3.40
2019-04-21T04:27:20.864Z,3.40
2019-04-21T04:29:39.796Z,3.40
2019-04-21T04:32:14.550Z,3.70
2019-04-21T04:34:56.899Z,3.50
2019-04-21T04:37:23.629Z,3.50
2019-04-21T04:43:05.135Z,3.40
2019-04-21T04:48:07.496Z,4.00
2019-04-21T04:53:21.842Z,3.80
2019-04-21T04:58:19.220Z,4.30
2019-04-21T05:00:54.617Z,4.00
2019-04-21T05:09:15.161Z,4.70
2019-04-21T05:16:46.909Z,5.60
2019-04-21T05:19:16.420Z,5.60
2019-04-21T05:22:12.143Z,5.80
2019-04-21T05:24:01.334Z,6.00
2019-04-21T05:26:28.621Z,6.20
2019-04-21T05:28:55.563Z,6.70
2019-04-21T05:31:46.391Z,6.70
2019-04-21T05:34:17.160Z,6.90
2019-04-21T05:37:01.392Z,7.00
2019-04-21T05:39:52.333Z,7.20
2019-04-21T05:42:36.417Z,7.40
2019-04-21T05:45:21.120Z,7.90
2019-04-21T05:48:18.951Z,8.10
2019-04-21T05:50:46.114Z,8.30
2019-04-21T05:53:29.613Z,8.60
2019-04-21T05:56:01.726Z,8.80
2019-04-21T05:58:30.184Z,9.00
2019-04-21T06:06:39.381Z,9.80
2019-04-21T06:08:42.420Z,10.10
2019-04-21T06:14:02.580Z,10.70
2019-04-21T06:16:28.646Z,10.90
2019-04-21T06:21:26.344Z,11.50
2019-04-21T06:23:57.304Z,11.80
2019-04-21T06:26:50.465Z,12.20
2019-04-21T06:28:57.857Z,12.50
2019-04-21T06:32:05.555Z,12.80
2019-04-21T06:34:04.723Z,13.10
2019-04-21T06:39:21.185Z,13.50
2019-04-21T06:41:55.743Z,13.70
2019-04-21T06:44:12.852Z,13.80
2019-04-21T06:46:39.284Z,14.00
2019-04-21T06:49:08.571Z,14.10
2019-04-21T06:51:43.000Z,14.30
2019-04-21T06:54:16.069Z,14.50
2019-04-21T06:56:58.571Z,14.60
2019-04-21T06:59:17.084Z,14.70
2019-04-21T07:01:55.306Z,14.70
2019-04-21T07:04:25.432Z,14.80
2019-04-21T07:06:57.469Z,14.90
2019-04-21T07:09:29.821Z,15.10
2019-04-21T07:11:52.458Z,15.20
2019-04-21T07:14:29.927Z,15.30
2019-04-21T07:16:57.850Z,15.40
2019-04-21T07:19:30.871Z,15.30
2019-04-21T07:21:52.461Z,15.50
2019-04-21T07:24:30.340Z,15.50
2019-04-21T07:26:55.701Z,15.50
2019-04-21T07:29:28.893Z,15.50
2019-04-21T07:32:04.498Z,15.60
2019-04-21T07:36:58.056Z,15.70
2019-04-21T07:39:30.068Z,15.90
2019-04-21T07:41:54.060Z,16.00
2019-04-21T07:44:29.062Z,16.10
2019-04-21T07:46:54.023Z,16.20
2019-04-21T07:49:48.460Z,16.30
2019-04-21T07:53:06.993Z,16.40
2019-04-21T07:57:47.470Z,16.50
2019-04-21T08:03:00.459Z,16.50
2019-04-21T08:05:31.375Z,16.50
2019-04-21T08:07:57.090Z,16.50
2019-04-21T08:10:26.184Z,16.60
2019-04-21T08:13:00.584Z,16.60
2019-04-21T08:15:36.549Z,16.70
2019-04-21T08:18:07.712Z,16.60
2019-04-21T08:20:35.207Z,16.50
2019-04-21T08:23:04.903Z,16.60
2019-04-21T08:25:50.836Z,16.70
2019-04-21T08:28:05.255Z,16.90
2019-04-21T08:30:36.298Z,17.00
2019-04-21T08:33:17.521Z,17.10
2019-04-21T08:38:13.558Z,17.30
2019-04-21T08:43:11.750Z,17.60
2019-04-21T08:45:51.241Z,17.60
2019-04-21T08:48:18.179Z,17.60
2019-04-21T08:50:43.863Z,17.60
2019-04-21T08:53:14.514Z,17.60
2019-04-21T08:56:12.291Z,17.70
2019-04-21T08:58:56.184Z,17.70
2019-04-21T09:01:48.960Z,17.70
2019-04-21T09:04:18.550Z,17.80
2019-04-21T09:06:58.826Z,18.00
2019-04-21T09:09:23.656Z,18.00
2019-04-21T09:11:55.329Z,18.10
2019-04-21T09:14:25.401Z,18.10
2019-04-21T09:16:47.478Z,18.20
2019-04-21T09:19:33.645Z,18.20
2019-04-21T09:21:57.569Z,18.40
2019-04-21T09:24:30.544Z,18.50
2019-04-21T09:26:57.308Z,18.60
2019-04-21T09:29:25.311Z,18.50
2019-04-21T09:31:43.557Z,18.50
2019-04-21T09:34:21.109Z,18.50
2019-04-21T09:36:47.837Z,18.30
2019-04-21T09:39:18.262Z,18.30
2019-04-21T09:41:44.888Z,18.50
2019-04-21T09:44:20.766Z,18.30
2019-04-21T09:46:50.779Z,18.40
2019-04-21T09:49:20.604Z,18.50
2019-04-21T09:51:45.972Z,18.60
2019-04-21T09:54:21.202Z,18.60
2019-04-21T09:56:52.363Z,18.40
2019-04-21T09:59:23.594Z,18.20
2019-04-21T10:02:01.594Z,18.20
2019-04-21T10:04:18.676Z,18.40
2019-04-21T10:06:47.715Z,18.60
2019-04-21T10:09:19.782Z,18.90
2019-04-21T10:11:48.141Z,18.90
2019-04-21T10:14:17.526Z,18.90
2019-04-21T10:17:13.052Z,19.10
2019-04-21T10:19:42.190Z,19.20
2019-04-21T10:22:12.327Z,19.30
2019-04-21T10:24:42.461Z,19.50
2019-04-21T10:27:13.262Z,19.50
2019-04-21T10:29:43.540Z,19.30
2019-04-21T10:32:13.400Z,19.20
2019-04-21T10:34:43.284Z,19.10
2019-04-21T10:37:16.680Z,19.20
2019-04-21T10:39:45.703Z,19.40
2019-04-21T10:42:15.490Z,19.30
2019-04-21T10:44:45.139Z,19.10
2019-04-21T10:47:14.528Z,19.20
2019-04-21T10:49:44.574Z,19.20
2019-04-21T10:52:19.347Z,19.30
2019-04-21T10:55:26.402Z,19.40
2019-04-21T10:57:42.179Z,19.50
2019-04-21T11:00:12.622Z,19.30
2019-04-21T11:02:47.179Z,19.30
2019-04-21T11:05:18.788Z,19.30
2019-04-21T11:08:07.732Z,19.40
2019-04-21T11:10:23.908Z,19.30
2019-04-21T11:12:52.818Z,19.30
2019-04-21T11:15:23.195Z,19.40
2019-04-21T11:17:52.440Z,19.60
2019-04-21T11:20:22.566Z,19.40
2019-04-21T11:22:51.761Z,19.20
2019-04-21T11:25:22.044Z,19.00
2019-04-21T11:27:51.225Z,19.10
2019-04-21T11:30:20.411Z,19.10
2019-04-21T11:32:49.742Z,19.10
2019-04-21T11:35:21.173Z,19.30
2019-04-21T11:37:50.576Z,19.50
2019-04-21T11:40:21.577Z,19.80
2019-04-21T11:42:51.456Z,19.70
2019-04-21T11:45:40.041Z,19.80
2019-04-21T11:48:18.477Z,19.70
2019-04-21T11:50:48.766Z,19.70
2019-04-21T11:53:18.935Z,19.40
2019-04-21T11:55:50.160Z,19.40
2019-04-21T11:58:18.699Z,19.50
2019-04-21T12:00:52.217Z,19.50
2019-04-21T12:03:22.153Z,19.50
2019-04-21T12:05:51.227Z,19.60
2019-04-21T12:08:29.971Z,19.60
2019-04-21T12:10:51.522Z,19.50
2019-04-21T12:13:20.627Z,19.50
2019-04-21T12:15:49.523Z,19.50
2019-04-21T12:18:19.691Z,19.70
2019-04-21T12:20:49.292Z,19.60
2019-04-21T12:23:22.686Z,19.60
2019-04-21T12:25:57.008Z,19.70
2019-04-21T12:28:26.147Z,19.80
2019-04-21T12:30:55.947Z,19.60
2019-04-21T12:33:49.983Z,19.50
2019-04-21T12:36:19.904Z,19.80
2019-04-21T12:38:54.421Z,20.00
2019-04-21T12:41:20.375Z,19.90
2019-04-21T12:43:50.671Z,20.00
2019-04-21T12:46:22.093Z,20.30
2019-04-21T12:48:52.281Z,20.20
2019-04-21T12:51:21.959Z,20.20
2019-04-21T12:53:51.884Z,20.20
2019-04-21T12:56:20.880Z,20.00
2019-04-21T12:58:51.234Z,19.90
2019-04-21T13:01:20.952Z,19.90
2019-04-21T13:03:50.053Z,20.00
2019-04-21T13:06:21.374Z,20.10
2019-04-21T13:08:57.878Z,20.20
2019-04-21T13:11:21.471Z,20.20
2019-04-21T13:13:50.504Z,20.20
2019-04-21T13:16:19.467Z,20.00
2019-04-21T13:18:49.233Z,19.60
2019-04-21T13:21:18.285Z,19.60
2019-04-21T13:23:47.290Z,19.70
2019-04-21T13:26:27.582Z,19.90
2019-04-21T13:28:47.948Z,20.20
2019-04-21T13:31:18.076Z,20.40
2019-04-21T13:33:48.117Z,20.50
2019-04-21T13:36:18.114Z,20.80
2019-04-21T13:39:36.004Z,20.70
2019-04-21T13:41:49.400Z,20.70
2019-04-21T13:44:15.780Z,20.90
2019-04-21T13:46:47.119Z,20.70
2019-04-21T13:49:17.199Z,20.70
2019-04-21T13:51:47.866Z,20.50
2019-04-21T13:54:18.015Z,20.40
2019-04-21T13:56:47.236Z,20.20
2019-04-21T13:59:16.269Z,20.20
2019-04-21T14:01:45.724Z,20.00
2019-04-21T14:04:15.856Z,20.00
2019-04-21T14:06:45.074Z,20.10
2019-04-21T14:09:15.592Z,20.50
2019-04-21T14:11:45.250Z,20.70
2019-04-21T14:14:14.468Z,20.60
2019-04-21T14:16:44.337Z,20.40
2019-04-21T14:19:15.246Z,20.30
2019-04-21T14:21:47.687Z,20.20
2019-04-21T14:24:15.061Z,20.30
2019-04-21T14:26:44.543Z,20.50
2019-04-21T14:29:13.620Z,20.70
2019-04-21T14:31:44.236Z,20.70
2019-04-21T14:34:14.332Z,20.70
2019-04-21T14:36:44.576Z,20.70
2019-04-21T14:39:14.597Z,20.70
2019-04-21T14:41:44.259Z,20.50
2019-04-21T14:44:13.398Z,20.40
2019-04-21T14:46:49.075Z,20.30
2019-04-21T14:49:27.047Z,20.20
2019-04-21T14:52:01.074Z,20.10
2019-04-21T14:55:04.849Z,20.20
2019-04-21T14:57:36.925Z,20.10
2019-04-21T15:00:09.458Z,20.20
2019-04-21T15:02:39.944Z,20.50
2019-04-21T15:05:11.570Z,20.70
2019-04-21T15:07:41.423Z,20.40
2019-04-21T15:10:20.009Z,20.20
2019-04-21T15:12:45.628Z,20.10
2019-04-21T15:15:18.081Z,19.90
2019-04-21T15:17:47.071Z,19.90
2019-04-21T15:20:17.776Z,20.10
2019-04-21T15:22:48.811Z,20.30
2019-04-21T15:25:18.363Z,20.20
2019-04-21T15:27:48.699Z,20.20
2019-04-21T15:30:18.695Z,20.20
2019-04-21T15:32:48.541Z,20.10
2019-04-21T15:35:17.499Z,20.20
2019-04-21T15:37:46.592Z,20.30
2019-04-21T15:40:27.784Z,20.20
2019-04-21T15:42:46.537Z,20.30
2019-04-21T15:45:18.759Z,20.10
2019-04-21T15:47:47.884Z,20.10
2019-04-21T15:50:20.106Z,20.00
2019-04-21T15:52:55.939Z,20.10
2019-04-21T15:55:42.945Z,20.20
2019-04-21T15:58:50.553Z,20.30
2019-04-21T16:01:28.287Z,20.50
2019-04-21T16:03:59.151Z,20.80
2019-04-21T16:06:29.888Z,20.90
2019-04-21T16:09:08.420Z,21.00
2019-04-21T16:11:37.919Z,21.10
2019-04-21T16:14:10.157Z,20.90
2019-04-21T16:16:39.378Z,20.50
2019-04-21T16:19:12.453Z,20.10
2019-04-21T16:21:44.409Z,19.70
2019-04-21T16:24:12.308Z,19.40
2019-04-21T16:26:48.665Z,19.20
2019-04-21T16:29:17.724Z,18.90
2019-04-21T16:31:48.943Z,18.60
2019-04-21T16:34:40.117Z,18.40
2019-04-21T16:37:05.593Z,18.30
2019-04-21T16:39:53.784Z,18.10
2019-04-21T16:42:22.731Z,18.00
2019-04-21T16:45:07.182Z,18.00
2019-04-21T16:47:37.901Z,18.00
2019-04-21T16:50:07.897Z,18.00
2019-04-21T16:52:56.219Z,17.90
2019-04-21T16:55:59.856Z,17.70
2019-04-21T16:58:38.859Z,17.60
2019-04-21T17:01:16.228Z,17.50
2019-04-21T17:03:44.410Z,17.50
2019-04-21T17:06:22.973Z,17.40
2019-04-21T17:08:52.666Z,17.30
2019-04-21T17:11:27.299Z,17.20
2019-04-21T17:13:54.782Z,17.10
2019-04-21T17:17:14.185Z,17.10
2019-04-21T17:19:11.358Z,17.00
2019-04-21T17:21:30.358Z,16.90
2019-04-21T17:23:59.601Z,16.90
2019-04-21T17:26:29.034Z,16.80
2019-04-21T17:28:58.671Z,16.80
2019-04-21T17:31:28.776Z,16.80
2019-04-21T17:34:06.254Z,16.60
2019-04-21T17:36:29.517Z,16.50
2019-04-21T17:38:59.975Z,16.30
2019-04-21T17:41:36.404Z,16.20
2019-04-21T17:44:00.375Z,16.10
2019-04-21T17:46:38.517Z,16.00
2019-04-21T17:49:01.173Z,15.90
2019-04-21T17:52:07.793Z,15.80
2019-04-21T17:54:47.040Z,15.60
2019-04-21T17:57:33.483Z,15.50
2019-04-21T18:00:24.939Z,15.40
2019-04-21T18:02:36.966Z,15.30
2019-04-21T18:05:08.603Z,15.20
2019-04-21T18:07:34.963Z,15.20
2019-04-21T18:10:19.237Z,15.10
2019-04-21T18:12:34.872Z,15.00
2019-04-21T18:15:03.988Z,14.90
2019-04-21T18:17:20.584Z,14.70
2019-04-21T18:19:52.895Z,14.50
2019-04-21T18:22:47.892Z,14.40
2019-04-21T18:25:33.207Z,14.30
2019-04-21T18:27:50.515Z,14.20
2019-04-21T18:31:14.636Z,14.00
2019-04-21T18:33:49.426Z,13.90
2019-04-21T18:36:32.592Z,13.80
2019-04-21T18:39:40.614Z,13.70
2019-04-21T18:42:17.580Z,13.50
2019-04-21T18:45:32.737Z,13.30
2019-04-21T18:47:53.735Z,13.20
2019-04-21T18:50:46.286Z,13.10
2019-04-21T18:53:32.528Z,12.90
2019-04-21T18:55:51.457Z,12.80
2019-04-21T18:58:17.991Z,12.50
2019-04-21T19:01:03.193Z,12.20
2019-04-21T19:03:28.143Z,11.90
2019-04-21T19:06:01.881Z,11.70
2019-04-21T19:08:46.609Z,11.60
2019-04-21T19:11:15.937Z,11.40
2019-04-21T19:14:15.833Z,11.30
2019-04-21T19:16:41.568Z,11.30
2019-04-21T19:19:36.672Z,11.30
2019-04-21T19:21:42.393Z,11.30
2019-04-21T19:27:03.157Z,11.00
2019-04-21T19:29:29.600Z,11.10
2019-04-21T19:31:56.126Z,11.30
2019-04-21T19:34:19.772Z,11.30
2019-04-21T19:36:51.158Z,11.20
2019-04-21T19:39:23.345Z,11.00
2019-04-21T19:41:58.377Z,10.70
2019-04-21T19:44:36.983Z,10.50
2019-04-21T19:47:10.518Z,10.30
2019-04-21T19:49:45.511Z,10.20
2019-04-21T19:52:03.018Z,10.30
2019-04-21T19:54:32.058Z,10.30
2019-04-21T19:56:56.240Z,10.50
2019-04-21T19:59:32.473Z,10.80
2019-04-21T20:01:56.237Z,11.00
2019-04-21T20:04:32.307Z,11.10
2019-04-21T20:07:03.024Z,11.20
2019-04-21T20:09:51.782Z,11.30
2019-04-21T20:12:34.326Z,11.30
2019-04-21T20:14:59.422Z,11.70
2019-04-21T20:18:11.370Z,11.80
2019-04-21T20:20:31.096Z,11.80
2019-04-21T20:23:22.723Z,11.80
2019-04-21T20:25:56.916Z,11.90
2019-04-21T20:28:42.738Z,11.90
2019-04-21T20:31:19.086Z,11.90
2019-04-21T20:34:02.285Z,11.80
2019-04-21T20:36:33.197Z,11.70
2019-04-21T20:38:53.562Z,11.50
2019-04-21T20:41:32.497Z,11.30
2019-04-21T20:44:11.815Z,11.30
2019-04-21T20:46:39.836Z,11.30
2019-04-21T20:49:37.605Z,11.20
2019-04-21T20:52:30.711Z,11.30
2019-04-21T20:55:23.619Z,11.20
2019-04-21T20:58:03.136Z,11.10
2019-04-21T21:01:22.555Z,11.10
2019-04-21T21:03:35.159Z,11.00
2019-04-21T21:06:08.142Z,10.90
2019-04-21T21:08:57.362Z,10.70
2019-04-21T21:11:34.229Z,10.50
2019-04-21T21:13:58.764Z,10.50
2019-04-21T21:16:53.393Z,10.50
2019-04-21T21:19:40.161Z,10.40
2019-04-21T21:21:59.177Z,10.40
2019-04-21T21:24:41.557Z,10.40
2019-04-21T21:27:05.634Z,10.40
2019-04-21T21:29:45.604Z,10.20
2019-04-21T21:32:27.444Z,10.20
2019-04-21T21:34:50.311Z,10.20
2019-04-21T21:37:29.331Z,10.00
2019-04-21T21:39:58.430Z,10.00
2019-04-21T21:42:09.461Z,10.10
2019-04-21T21:44:54.553Z,10.10
2019-04-21T21:47:30.419Z,10.30
2019-04-21T21:50:04.454Z,10.60
2019-04-21T21:52:35.465Z,10.80
2019-04-21T21:54:53.890Z,11.00
2019-04-21T21:57:34.153Z,11.40
2019-04-21T22:00:21.757Z,11.50
2019-04-21T22:03:24.468Z,11.60
2019-04-21T22:05:57.357Z,11.70
2019-04-21T22:08:30.275Z,11.70
2019-04-21T22:11:31.778Z,11.70
2019-04-21T22:14:05.669Z,11.90
2019-04-21T22:16:49.432Z,12.10
2019-04-21T22:19:29.784Z,12.20
2019-04-21T22:22:05.211Z,12.40
2019-04-21T22:24:34.986Z,12.50
2019-04-21T22:26:52.423Z,12.50
2019-04-21T22:29:29.217Z,12.70
2019-04-21T22:32:02.736Z,12.60
2019-04-21T22:34:31.450Z,12.60
2019-04-21T22:37:16.096Z,12.60
2019-04-21T22:39:49.658Z,12.60
2019-04-21T22:42:33.164Z,12.60
2019-04-21T22:44:58.584Z,12.60
2019-04-21T22:47:44.460Z,12.50
2019-04-21T22:50:32.829Z,12.40
2019-04-21T22:53:09.653Z,12.50
2019-04-21T22:55:40.921Z,12.40
2019-04-21T22:58:24.808Z,12.30
2019-04-21T23:00:57.109Z,12.20
2019-04-21T23:03:25.201Z,12.20
2019-04-21T23:06:10.510Z,12.20
2019-04-21T23:08:43.696Z,12.40
2019-04-21T23:11:12.892Z,12.40
2019-04-21T23:13:45.036Z,12.40
2019-04-21T23:16:33.745Z,12.40
2019-04-21T23:19:17.303Z,12.50
2019-04-21T23:22:01.073Z,12.50
2019-04-21T23:26:53.703Z,12.70
2019-04-21T23:29:40.906Z,12.60
2019-04-21T23:32:00.684Z,12.60
2019-04-21T23:34:19.578Z,12.60
2019-04-21T23:36:53.071Z,12.60
2019-04-21T23:39:23.324Z,12.60
2019-04-21T23:41:51.681Z,12.60
2019-04-21T23:44:24.088Z,12.60
2019-04-21T23:46:57.559Z,12.60
2019-04-21T23:49:35.199Z,12.60
2019-04-21T23:52:00.466Z,12.50
2019-04-21T23:54:27.111Z,12.40
2019-04-21T23:57:11.004Z,12.40
2019-04-21T23:59:40.904Z,12.30
